sensor_id;sensor_type;location;lat;lon;timestamp;temperature;humidity
25949;DHT22;13961;51.178;4.448;2022-09-27T00:02:01;11.50;99.90
25949;DHT22;13961;51.178;4.448;2022-09-27T00:04:27;11.60;99.90
25949;DHT22;13961;51.178;4.448;2022-09-27T00:06:53;11.50;99.90
25949;DHT22;13961;51.178;4.448;2022-09-27T00:09:18;11.50;99.90
25949;DHT22;13961;51.178;4.448;2022-09-27T00:11:44;11.50;99.90
25949;DHT22;13961;51.178;4.448;2022-09-27T00:14:12;11.40;99.90
25949;DHT22;13961;51.178;4.448;2022-09-27T00:16:39;11.70;99.90
25949;DHT22;13961;51.178;4.448;2022-09-27T00:19:09;11.50;99.90
25949;DHT22;13961;51.178;4.448;2022-09-27T00:21:35;11.30;99.90
25949;DHT22;13961;51.178;4.448;2022-09-27T00:24:02;11.30;99.90
25949;DHT22;13961;51.178;4.448;2022-09-27T00:26:28;11.40;99.90
25949;DHT22;13961;51.178;4.448;2022-09-27T00:28:53;11.40;99.90
25949;DHT22;13961;51.178;4.448;2022-09-27T00:31:27;11.40;99.90
25949;DHT22;13961;51.178;4.448;2022-09-27T00:33:55;11.30;99.90
25949;DHT22;13961;51.178;4.448;2022-09-27T00:36:22;11.60;99.90
25949;DHT22;13961;51.178;4.448;2022-09-27T00:38:48;11.60;99.90
25949;DHT22;13961;51.178;4.448;2022-09-27T00:41:16;11.60;99.90
25949;DHT22;13961;51.178;4.448;2022-09-27T00:43:46;11.60;99.90
25949;DHT22;13961;51.178;4.448;2022-09-27T00:46:13;11.70;99.90
25949;DHT22;13961;51.178;4.448;2022-09-27T00:48:42;11.30;99.90
25949;DHT22;13961;51.178;4.448;2022-09-27T00:51:08;11.60;99.90
25949;DHT22;13961;51.178;4.448;2022-09-27T00:53:46;11.50;99.90
25949;DHT22;13961;51.178;4.448;2022-09-27T00:56:17;11.60;99.90
25949;DHT22;13961;51.178;4.448;2022-09-27T00:58:53;11.70;99.90
25949;DHT22;13961;51.178;4.448;2022-09-27T01:01:20;11.30;99.90
25949;DHT22;13961;51.178;4.448;2022-09-27T01:04:05;11.20;99.90
25949;DHT22;13961;51.178;4.448;2022-09-27T01:06:31;11.20;99.90
25949;DHT22;13961;51.178;4.448;2022-09-27T01:08:57;11.30;99.90
25949;DHT22;13961;51.178;4.448;2022-09-27T01:16:41;11.50;99.90
25949;DHT22;13961;51.178;4.448;2022-09-27T01:19:25;11.30;99.90
25949;DHT22;13961;51.178;4.448;2022-09-27T01:22:09;11.10;99.90
25949;DHT22;13961;51.178;4.448;2022-09-27T01:41:03;10.40;99.90
25949;DHT22;13961;51.178;4.448;2022-09-27T01:43:41;10.30;99.90
25949;DHT22;13961;51.178;4.448;2022-09-27T01:46:13;10.30;99.90
25949;DHT22;13961;51.178;4.448;2022-09-27T01:48:46;10.60;99.90
25949;DHT22;13961;51.178;4.448;2022-09-27T01:51:19;10.30;99.90
25949;DHT22;13961;51.178;4.448;2022-09-27T01:53:52;10.40;99.90
25949;DHT22;13961;51.178;4.448;2022-09-27T01:56:25;10.20;99.90
25949;DHT22;13961;51.178;4.448;2022-09-27T01:58:58;10.20;99.90
25949;DHT22;13961;51.178;4.448;2022-09-27T02:01:26;10.10;99.90
25949;DHT22;13961;51.178;4.448;2022-09-27T02:03:54;10.10;99.90
25949;DHT22;13961;51.178;4.448;2022-09-27T02:06:25;10.10;99.90
25949;DHT22;13961;51.178;4.448;2022-09-27T02:09:08;10.40;99.90
25949;DHT22;13961;51.178;4.448;2022-09-27T02:11:38;10.30;99.90
25949;DHT22;13961;51.178;4.448;2022-09-27T02:14:07;10.50;99.90
25949;DHT22;13961;51.178;4.448;2022-09-27T02:16:51;10.50;99.90
25949;DHT22;13961;51.178;4.448;2022-09-27T02:19:26;10.00;99.90
25949;DHT22;13961;51.178;4.448;2022-09-27T02:22:49;10.10;99.90
25949;DHT22;13961;51.178;4.448;2022-09-27T02:25:30;10.10;99.90
25949;DHT22;13961;51.178;4.448;2022-09-27T02:30:31;10.00;99.90
25949;DHT22;13961;51.178;4.448;2022-09-27T02:32:57;9.90;99.90
25949;DHT22;13961;51.178;4.448;2022-09-27T02:35:28;9.80;99.90
25949;DHT22;13961;51.178;4.448;2022-09-27T02:37:56;9.80;99.90
25949;DHT22;13961;51.178;4.448;2022-09-27T02:40:23;9.90;99.90
25949;DHT22;13961;51.178;4.448;2022-09-27T02:42:49;10.10;99.90
25949;DHT22;13961;51.178;4.448;2022-09-27T02:45:17;10.30;99.90
25949;DHT22;13961;51.178;4.448;2022-09-27T02:50:30;10.50;99.90
25949;DHT22;13961;51.178;4.448;2022-09-27T02:53:14;10.50;99.90
25949;DHT22;13961;51.178;4.448;2022-09-27T02:59:00;10.50;99.90
25949;DHT22;13961;51.178;4.448;2022-09-27T03:06:29;10.70;99.90
25949;DHT22;13961;51.178;4.448;2022-09-27T03:08:56;10.60;99.90
25949;DHT22;13961;51.178;4.448;2022-09-27T03:11:22;10.60;99.90
25949;DHT22;13961;51.178;4.448;2022-09-27T03:13:47;10.50;99.90
25949;DHT22;13961;51.178;4.448;2022-09-27T03:16:13;10.50;99.90
25949;DHT22;13961;51.178;4.448;2022-09-27T03:18:40;10.60;99.90
25949;DHT22;13961;51.178;4.448;2022-09-27T03:21:06;10.70;99.90
25949;DHT22;13961;51.178;4.448;2022-09-27T03:23:31;10.70;99.90
25949;DHT22;13961;51.178;4.448;2022-09-27T03:25:57;10.80;99.90
25949;DHT22;13961;51.178;4.448;2022-09-27T03:28:23;11.10;99.90
25949;DHT22;13961;51.178;4.448;2022-09-27T03:30:50;10.80;99.90
25949;DHT22;13961;51.178;4.448;2022-09-27T03:33:16;10.70;99.90
25949;DHT22;13961;51.178;4.448;2022-09-27T03:35:42;10.70;99.90
25949;DHT22;13961;51.178;4.448;2022-09-27T03:38:08;10.60;99.90
25949;DHT22;13961;51.178;4.448;2022-09-27T03:40:34;10.80;99.90
25949;DHT22;13961;51.178;4.448;2022-09-27T03:43:00;10.90;99.90
25949;DHT22;13961;51.178;4.448;2022-09-27T03:45:26;10.60;99.90
25949;DHT22;13961;51.178;4.448;2022-09-27T03:47:55;10.20;99.90
25949;DHT22;13961;51.178;4.448;2022-09-27T03:50:23;10.20;99.90
25949;DHT22;13961;51.178;4.448;2022-09-27T03:52:50;10.50;99.90
25949;DHT22;13961;51.178;4.448;2022-09-27T03:55:15;10.60;99.90
25949;DHT22;13961;51.178;4.448;2022-09-27T03:57:45;10.60;99.90
25949;DHT22;13961;51.178;4.448;2022-09-27T04:00:11;10.70;99.90
25949;DHT22;13961;51.178;4.448;2022-09-27T04:02:37;10.70;99.90
25949;DHT22;13961;51.178;4.448;2022-09-27T04:05:12;10.70;99.90
25949;DHT22;13961;51.178;4.448;2022-09-27T04:07:38;10.60;99.90
25949;DHT22;13961;51.178;4.448;2022-09-27T04:10:04;10.70;99.90
25949;DHT22;13961;51.178;4.448;2022-09-27T04:12:30;10.80;99.90
25949;DHT22;13961;51.178;4.448;2022-09-27T04:14:55;10.50;99.90
25949;DHT22;13961;51.178;4.448;2022-09-27T04:17:23;10.80;99.90
25949;DHT22;13961;51.178;4.448;2022-09-27T04:19:53;10.80;99.90
25949;DHT22;13961;51.178;4.448;2022-09-27T04:22:19;10.80;99.90
25949;DHT22;13961;51.178;4.448;2022-09-27T04:24:44;10.90;99.90
25949;DHT22;13961;51.178;4.448;2022-09-27T04:27:10;10.80;99.90
25949;DHT22;13961;51.178;4.448;2022-09-27T04:29:36;10.80;99.90
25949;DHT22;13961;51.178;4.448;2022-09-27T04:32:01;10.50;99.90
25949;DHT22;13961;51.178;4.448;2022-09-27T04:34:27;10.60;99.90
25949;DHT22;13961;51.178;4.448;2022-09-27T04:37:11;10.50;99.90
25949;DHT22;13961;51.178;4.448;2022-09-27T04:39:37;10.70;99.90
25949;DHT22;13961;51.178;4.448;2022-09-27T04:42:04;10.50;99.90
25949;DHT22;13961;51.178;4.448;2022-09-27T04:44:30;10.60;99.90
25949;DHT22;13961;51.178;4.448;2022-09-27T04:46:55;10.80;99.90
25949;DHT22;13961;51.178;4.448;2022-09-27T04:49:21;11.00;99.90
25949;DHT22;13961;51.178;4.448;2022-09-27T04:51:46;11.00;99.90
25949;DHT22;13961;51.178;4.448;2022-09-27T04:54:13;10.90;99.90
25949;DHT22;13961;51.178;4.448;2022-09-27T04:56:38;11.00;99.90
25949;DHT22;13961;51.178;4.448;2022-09-27T04:59:04;11.20;99.90
25949;DHT22;13961;51.178;4.448;2022-09-27T05:01:29;11.00;99.90
25949;DHT22;13961;51.178;4.448;2022-09-27T05:03:56;10.70;99.90
25949;DHT22;13961;51.178;4.448;2022-09-27T05:06:21;10.70;99.90
25949;DHT22;13961;51.178;4.448;2022-09-27T05:08:47;10.80;99.90
25949;DHT22;13961;51.178;4.448;2022-09-27T05:11:13;10.80;99.90
25949;DHT22;13961;51.178;4.448;2022-09-27T05:13:39;10.90;99.90
25949;DHT22;13961;51.178;4.448;2022-09-27T05:16:04;10.90;99.90
25949;DHT22;13961;51.178;4.448;2022-09-27T05:18:30;10.90;99.90
25949;DHT22;13961;51.178;4.448;2022-09-27T05:20:56;10.70;99.90
25949;DHT22;13961;51.178;4.448;2022-09-27T05:23:23;10.80;99.90
25949;DHT22;13961;51.178;4.448;2022-09-27T05:25:49;10.80;99.90
25949;DHT22;13961;51.178;4.448;2022-09-27T05:28:14;11.00;99.90
25949;DHT22;13961;51.178;4.448;2022-09-27T05:30:40;11.10;99.90
25949;DHT22;13961;51.178;4.448;2022-09-27T05:33:06;11.20;99.90
25949;DHT22;13961;51.178;4.448;2022-09-27T05:35:31;11.30;99.90
25949;DHT22;13961;51.178;4.448;2022-09-27T05:37:59;11.10;99.90
25949;DHT22;13961;51.178;4.448;2022-09-27T05:40:25;11.20;99.90
25949;DHT22;13961;51.178;4.448;2022-09-27T05:42:51;11.00;99.90
25949;DHT22;13961;51.178;4.448;2022-09-27T05:45:18;10.80;99.90
25949;DHT22;13961;51.178;4.448;2022-09-27T05:47:57;10.80;99.90
25949;DHT22;13961;51.178;4.448;2022-09-27T05:50:24;10.50;99.90
25949;DHT22;13961;51.178;4.448;2022-09-27T05:52:50;10.60;99.90
25949;DHT22;13961;51.178;4.448;2022-09-27T05:55:16;10.70;99.90
25949;DHT22;13961;51.178;4.448;2022-09-27T05:57:41;10.50;99.90
25949;DHT22;13961;51.178;4.448;2022-09-27T06:00:08;10.50;99.90
25949;DHT22;13961;51.178;4.448;2022-09-27T06:02:34;10.50;99.90
25949;DHT22;13961;51.178;4.448;2022-09-27T06:05:00;10.50;99.90
25949;DHT22;13961;51.178;4.448;2022-09-27T06:07:25;10.60;99.90
25949;DHT22;13961;51.178;4.448;2022-09-27T06:09:53;10.70;99.90
25949;DHT22;13961;51.178;4.448;2022-09-27T06:12:19;10.70;99.90
25949;DHT22;13961;51.178;4.448;2022-09-27T06:14:44;10.60;99.90
25949;DHT22;13961;51.178;4.448;2022-09-27T06:17:10;10.50;99.90
25949;DHT22;13961;51.178;4.448;2022-09-27T06:19:35;10.50;99.90
25949;DHT22;13961;51.178;4.448;2022-09-27T06:22:01;10.60;99.90
25949;DHT22;13961;51.178;4.448;2022-09-27T06:24:27;10.60;99.90
25949;DHT22;13961;51.178;4.448;2022-09-27T06:26:53;10.70;99.90
25949;DHT22;13961;51.178;4.448;2022-09-27T06:29:18;10.70;99.90
25949;DHT22;13961;51.178;4.448;2022-09-27T06:31:44;10.50;99.90
25949;DHT22;13961;51.178;4.448;2022-09-27T06:34:10;10.60;99.90
25949;DHT22;13961;51.178;4.448;2022-09-27T06:36:35;10.70;99.90
25949;DHT22;13961;51.178;4.448;2022-09-27T06:39:01;10.70;99.90
25949;DHT22;13961;51.178;4.448;2022-09-27T06:41:27;10.70;99.90
25949;DHT22;13961;51.178;4.448;2022-09-27T06:43:52;10.80;99.90
25949;DHT22;13961;51.178;4.448;2022-09-27T06:46:18;10.60;99.90
25949;DHT22;13961;51.178;4.448;2022-09-27T06:48:44;10.60;99.90
25949;DHT22;13961;51.178;4.448;2022-09-27T06:51:09;11.00;99.90
25949;DHT22;13961;51.178;4.448;2022-09-27T06:53:35;10.90;99.90
25949;DHT22;13961;51.178;4.448;2022-09-27T06:56:01;11.00;99.90
25949;DHT22;13961;51.178;4.448;2022-09-27T06:58:28;10.90;99.90
25949;DHT22;13961;51.178;4.448;2022-09-27T07:01:13;10.80;99.90
25949;DHT22;13961;51.178;4.448;2022-09-27T07:03:38;10.80;99.90
25949;DHT22;13961;51.178;4.448;2022-09-27T07:06:08;10.80;99.90
25949;DHT22;13961;51.178;4.448;2022-09-27T07:08:36;10.70;99.90
25949;DHT22;13961;51.178;4.448;2022-09-27T07:11:06;10.70;99.90
25949;DHT22;13961;51.178;4.448;2022-09-27T07:13:33;10.80;99.90
25949;DHT22;13961;51.178;4.448;2022-09-27T07:16:02;10.70;99.90
25949;DHT22;13961;51.178;4.448;2022-09-27T07:18:28;10.50;99.90
25949;DHT22;13961;51.178;4.448;2022-09-27T07:20:53;10.60;99.90
25949;DHT22;13961;51.178;4.448;2022-09-27T07:23:19;10.80;99.90
25949;DHT22;13961;51.178;4.448;2022-09-27T07:25:45;10.60;99.90
25949;DHT22;13961;51.178;4.448;2022-09-27T07:28:16;10.70;99.90
25949;DHT22;13961;51.178;4.448;2022-09-27T07:30:42;10.80;99.90
25949;DHT22;13961;51.178;4.448;2022-09-27T07:33:09;10.90;99.90
25949;DHT22;13961;51.178;4.448;2022-09-27T07:35:37;11.00;99.90
25949;DHT22;13961;51.178;4.448;2022-09-27T07:38:04;11.00;99.90
25949;DHT22;13961;51.178;4.448;2022-09-27T07:40:35;11.00;99.90
25949;DHT22;13961;51.178;4.448;2022-09-27T07:43:01;11.30;99.90
25949;DHT22;13961;51.178;4.448;2022-09-27T07:45:27;11.20;99.90
25949;DHT22;13961;51.178;4.448;2022-09-27T07:47:53;11.30;99.90
25949;DHT22;13961;51.178;4.448;2022-09-27T07:50:19;11.30;99.90
25949;DHT22;13961;51.178;4.448;2022-09-27T07:52:46;11.30;99.90
25949;DHT22;13961;51.178;4.448;2022-09-27T07:55:13;11.20;99.90
25949;DHT22;13961;51.178;4.448;2022-09-27T07:57:40;11.10;99.90
25949;DHT22;13961;51.178;4.448;2022-09-27T08:00:11;11.10;99.90
25949;DHT22;13961;51.178;4.448;2022-09-27T08:02:37;11.30;99.90
25949;DHT22;13961;51.178;4.448;2022-09-27T08:05:03;11.40;99.90
25949;DHT22;13961;51.178;4.448;2022-09-27T08:07:29;11.30;99.90
25949;DHT22;13961;51.178;4.448;2022-09-27T08:09:57;11.30;99.90
25949;DHT22;13961;51.178;4.448;2022-09-27T08:12:22;11.30;99.90
25949;DHT22;13961;51.178;4.448;2022-09-27T08:14:48;11.20;99.90
25949;DHT22;13961;51.178;4.448;2022-09-27T08:17:15;11.40;99.90
25949;DHT22;13961;51.178;4.448;2022-09-27T08:19:40;11.50;99.90
25949;DHT22;13961;51.178;4.448;2022-09-27T08:22:07;11.60;99.90
25949;DHT22;13961;51.178;4.448;2022-09-27T08:24:32;11.50;99.90
25949;DHT22;13961;51.178;4.448;2022-09-27T08:26:59;11.40;99.90
25949;DHT22;13961;51.178;4.448;2022-09-27T08:29:25;11.60;99.90
25949;DHT22;13961;51.178;4.448;2022-09-27T08:31:51;11.50;99.90
25949;DHT22;13961;51.178;4.448;2022-09-27T08:34:22;11.50;99.90
25949;DHT22;13961;51.178;4.448;2022-09-27T08:36:48;11.80;99.90
25949;DHT22;13961;51.178;4.448;2022-09-27T08:39:14;11.90;99.90
25949;DHT22;13961;51.178;4.448;2022-09-27T08:41:50;11.90;99.90
25949;DHT22;13961;51.178;4.448;2022-09-27T08:47:34;11.90;99.90
25949;DHT22;13961;51.178;4.448;2022-09-27T08:50:26;11.80;99.90
25949;DHT22;13961;51.178;4.448;2022-09-27T08:55:50;12.10;99.90
25949;DHT22;13961;51.178;4.448;2022-09-27T08:58:26;12.20;99.90
25949;DHT22;13961;51.178;4.448;2022-09-27T09:00:54;12.50;99.90
25949;DHT22;13961;51.178;4.448;2022-09-27T09:03:27;12.70;99.90
25949;DHT22;13961;51.178;4.448;2022-09-27T09:06:26;12.80;99.90
25949;DHT22;13961;51.178;4.448;2022-09-27T09:09:02;13.00;99.90
25949;DHT22;13961;51.178;4.448;2022-09-27T09:17:51;11.90;99.90
25949;DHT22;13961;51.178;4.448;2022-09-27T09:23:07;11.90;99.90
25949;DHT22;13961;51.178;4.448;2022-09-27T09:25:49;11.90;99.90
25949;DHT22;13961;51.178;4.448;2022-09-27T09:28:39;11.90;99.90
25949;DHT22;13961;51.178;4.448;2022-09-27T09:31:18;11.80;99.90
25949;DHT22;13961;51.178;4.448;2022-09-27T09:33:55;11.90;99.90
25949;DHT22;13961;51.178;4.448;2022-09-27T09:36:30;12.00;99.90
25949;DHT22;13961;51.178;4.448;2022-09-27T09:39:05;11.90;99.90
25949;DHT22;13961;51.178;4.448;2022-09-27T09:41:38;11.70;99.90
25949;DHT22;13961;51.178;4.448;2022-09-27T09:44:22;12.00;99.90
25949;DHT22;13961;51.178;4.448;2022-09-27T09:46:52;11.90;99.90
25949;DHT22;13961;51.178;4.448;2022-09-27T09:49:25;11.50;99.90
25949;DHT22;13961;51.178;4.448;2022-09-27T09:52:00;11.40;99.90
25949;DHT22;13961;51.178;4.448;2022-09-27T09:54:36;11.20;99.90
25949;DHT22;13961;51.178;4.448;2022-09-27T09:57:21;11.40;99.90
25949;DHT22;13961;51.178;4.448;2022-09-27T10:00:12;11.70;99.90
25949;DHT22;13961;51.178;4.448;2022-09-27T10:02:41;11.90;99.90
25949;DHT22;13961;51.178;4.448;2022-09-27T10:05:12;12.10;99.90
25949;DHT22;13961;51.178;4.448;2022-09-27T10:07:39;12.50;99.90
25949;DHT22;13961;51.178;4.448;2022-09-27T10:10:06;12.80;99.90
25949;DHT22;13961;51.178;4.448;2022-09-27T10:12:32;12.80;99.90
25949;DHT22;13961;51.178;4.448;2022-09-27T10:15:00;12.70;99.90
25949;DHT22;13961;51.178;4.448;2022-09-27T10:17:37;12.70;99.90
25949;DHT22;13961;51.178;4.448;2022-09-27T10:20:05;12.20;99.90
25949;DHT22;13961;51.178;4.448;2022-09-27T10:22:37;12.20;99.90
25949;DHT22;13961;51.178;4.448;2022-09-27T10:25:07;12.30;99.90
25949;DHT22;13961;51.178;4.448;2022-09-27T10:27:48;12.20;99.90
25949;DHT22;13961;51.178;4.448;2022-09-27T10:30:29;12.30;99.90
25949;DHT22;13961;51.178;4.448;2022-09-27T10:32:59;12.20;99.90
25949;DHT22;13961;51.178;4.448;2022-09-27T10:35:39;12.30;99.90
25949;DHT22;13961;51.178;4.448;2022-09-27T10:40:41;13.10;99.90
25949;DHT22;13961;51.178;4.448;2022-09-27T10:43:34;13.60;99.90
25949;DHT22;13961;51.178;4.448;2022-09-27T10:46:24;13.50;99.90
25949;DHT22;13961;51.178;4.448;2022-09-27T10:51:42;14.00;99.90
25949;DHT22;13961;51.178;4.448;2022-09-27T10:54:19;14.40;99.90
25949;DHT22;13961;51.178;4.448;2022-09-27T10:56:54;14.70;99.90
25949;DHT22;13961;51.178;4.448;2022-09-27T10:59:21;14.60;99.90
25949;DHT22;13961;51.178;4.448;2022-09-27T11:01:48;14.70;99.90
25949;DHT22;13961;51.178;4.448;2022-09-27T11:04:30;14.50;99.90
25949;DHT22;13961;51.178;4.448;2022-09-27T11:07:16;14.30;99.90
25949;DHT22;13961;51.178;4.448;2022-09-27T11:09:55;14.20;99.90
25949;DHT22;13961;51.178;4.448;2022-09-27T11:12:24;13.90;99.90
25949;DHT22;13961;51.178;4.448;2022-09-27T11:14:57;14.10;99.90
25949;DHT22;13961;51.178;4.448;2022-09-27T11:17:50;13.90;99.90
25949;DHT22;13961;51.178;4.448;2022-09-27T11:20:38;13.70;99.90
25949;DHT22;13961;51.178;4.448;2022-09-27T11:47:33;14.70;99.90
25949;DHT22;13961;51.178;4.448;2022-09-27T11:52:44;14.70;99.90
25949;DHT22;13961;51.178;4.448;2022-09-27T12:01:48;11.70;99.90
25949;DHT22;13961;51.178;4.448;2022-09-27T12:09:36;11.80;99.90
25949;DHT22;13961;51.178;4.448;2022-09-27T12:12:17;11.90;99.90
25949;DHT22;13961;51.178;4.448;2022-09-27T12:14:54;12.30;99.90
25949;DHT22;13961;51.178;4.448;2022-09-27T12:17:29;12.80;99.90
25949;DHT22;13961;51.178;4.448;2022-09-27T12:19:58;13.50;99.90
25949;DHT22;13961;51.178;4.448;2022-09-27T12:22:34;13.90;99.90
25949;DHT22;13961;51.178;4.448;2022-09-27T12:25:02;14.40;99.90
25949;DHT22;13961;51.178;4.448;2022-09-27T12:27:38;14.40;99.90
25949;DHT22;13961;51.178;4.448;2022-09-27T12:30:11;14.70;99.90
25949;DHT22;13961;51.178;4.448;2022-09-27T12:32:55;14.90;99.90
25949;DHT22;13961;51.178;4.448;2022-09-27T12:35:28;14.80;99.90
25949;DHT22;13961;51.178;4.448;2022-09-27T12:40:24;14.70;99.90
25949;DHT22;13961;51.178;4.448;2022-09-27T12:42:55;15.00;99.90
25949;DHT22;13961;51.178;4.448;2022-09-27T13:12:36;15.10;99.90
25949;DHT22;13961;51.178;4.448;2022-09-27T13:15:14;15.30;99.90
25949;DHT22;13961;51.178;4.448;2022-09-27T13:25:55;14.50;99.90
25949;DHT22;13961;51.178;4.448;2022-09-27T13:31:07;13.70;99.90
25949;DHT22;13961;51.178;4.448;2022-09-27T13:33:48;13.60;99.90
25949;DHT22;13961;51.178;4.448;2022-09-27T13:46:55;14.40;99.90
25949;DHT22;13961;51.178;4.448;2022-09-27T13:52:03;14.70;99.90
25949;DHT22;13961;51.178;4.448;2022-09-27T13:54:38;14.30;99.90
25949;DHT22;13961;51.178;4.448;2022-09-27T13:57:15;14.10;99.90
25949;DHT22;13961;51.178;4.448;2022-09-27T13:59:51;13.60;99.90
25949;DHT22;13961;51.178;4.448;2022-09-27T14:02:31;12.60;99.90
25949;DHT22;13961;51.178;4.448;2022-09-27T14:05:01;12.10;99.90
25949;DHT22;13961;51.178;4.448;2022-09-27T14:07:35;11.60;99.90
25949;DHT22;13961;51.178;4.448;2022-09-27T14:10:06;11.50;99.90
25949;DHT22;13961;51.178;4.448;2022-09-27T14:12:38;11.50;99.90
25949;DHT22;13961;51.178;4.448;2022-09-27T14:15:07;11.80;99.90
25949;DHT22;13961;51.178;4.448;2022-09-27T14:17:34;12.00;99.90
25949;DHT22;13961;51.178;4.448;2022-09-27T14:19:59;12.20;99.90
25949;DHT22;13961;51.178;4.448;2022-09-27T14:22:27;12.20;99.90
25949;DHT22;13961;51.178;4.448;2022-09-27T14:24:54;12.30;99.90
25949;DHT22;13961;51.178;4.448;2022-09-27T14:27:28;12.30;99.90
25949;DHT22;13961;51.178;4.448;2022-09-27T14:29:57;12.40;99.90
25949;DHT22;13961;51.178;4.448;2022-09-27T14:32:46;12.60;99.90
25949;DHT22;13961;51.178;4.448;2022-09-27T14:35:19;12.70;99.90
25949;DHT22;13961;51.178;4.448;2022-09-27T14:38:09;12.80;99.90
25949;DHT22;13961;51.178;4.448;2022-09-27T14:40:40;12.60;99.90
25949;DHT22;13961;51.178;4.448;2022-09-27T14:43:14;12.70;99.90
25949;DHT22;13961;51.178;4.448;2022-09-27T14:45:41;12.40;99.90
25949;DHT22;13961;51.178;4.448;2022-09-27T14:48:26;12.70;99.90
25949;DHT22;13961;51.178;4.448;2022-09-27T14:50:57;12.70;99.90
25949;DHT22;13961;51.178;4.448;2022-09-27T14:53:27;12.60;99.90
25949;DHT22;13961;51.178;4.448;2022-09-27T14:55:54;12.80;99.90
25949;DHT22;13961;51.178;4.448;2022-09-27T14:58:21;12.90;99.90
25949;DHT22;13961;51.178;4.448;2022-09-27T15:00:56;12.90;99.90
25949;DHT22;13961;51.178;4.448;2022-09-27T15:03:30;13.00;99.90
25949;DHT22;13961;51.178;4.448;2022-09-27T15:05:57;12.80;99.90
25949;DHT22;13961;51.178;4.448;2022-09-27T15:08:28;12.80;99.90
25949;DHT22;13961;51.178;4.448;2022-09-27T15:10:56;12.70;99.90
25949;DHT22;13961;51.178;4.448;2022-09-27T15:13:22;12.60;99.90
25949;DHT22;13961;51.178;4.448;2022-09-27T15:15:50;12.50;99.90
25949;DHT22;13961;51.178;4.448;2022-09-27T15:18:42;12.50;99.90
25949;DHT22;13961;51.178;4.448;2022-09-27T15:21:11;12.50;99.90
25949;DHT22;13961;51.178;4.448;2022-09-27T15:23:43;12.70;99.90
25949;DHT22;13961;51.178;4.448;2022-09-27T15:26:24;12.50;99.90
25949;DHT22;13961;51.178;4.448;2022-09-27T15:28:52;12.50;99.90
25949;DHT22;13961;51.178;4.448;2022-09-27T15:31:31;12.70;99.90
25949;DHT22;13961;51.178;4.448;2022-09-27T15:33:58;13.10;99.90
25949;DHT22;13961;51.178;4.448;2022-09-27T15:36:55;13.30;99.90
25949;DHT22;13961;51.178;4.448;2022-09-27T15:39:31;13.60;99.90
25949;DHT22;13961;51.178;4.448;2022-09-27T15:42:02;13.60;99.90
25949;DHT22;13961;51.178;4.448;2022-09-27T15:44:38;13.50;99.90
25949;DHT22;13961;51.178;4.448;2022-09-27T15:50:30;13.40;99.90
25949;DHT22;13961;51.178;4.448;2022-09-27T15:52:47;13.40;99.90
25949;DHT22;13961;51.178;4.448;2022-09-27T15:55:14;13.30;99.90
25949;DHT22;13961;51.178;4.448;2022-09-27T15:57:42;13.40;99.90
25949;DHT22;13961;51.178;4.448;2022-09-27T16:00:17;13.30;99.90
25949;DHT22;13961;51.178;4.448;2022-09-27T16:02:44;13.40;99.90
25949;DHT22;13961;51.178;4.448;2022-09-27T16:05:10;13.50;99.90
25949;DHT22;13961;51.178;4.448;2022-09-27T16:07:36;13.40;99.90
25949;DHT22;13961;51.178;4.448;2022-09-27T16:10:34;13.30;99.90
25949;DHT22;13961;51.178;4.448;2022-09-27T16:13:01;13.40;99.90
25949;DHT22;13961;51.178;4.448;2022-09-27T16:15:27;13.50;99.90
25949;DHT22;13961;51.178;4.448;2022-09-27T16:17:53;13.50;99.90
25949;DHT22;13961;51.178;4.448;2022-09-27T16:20:22;13.50;99.90
25949;DHT22;13961;51.178;4.448;2022-09-27T16:22:50;13.30;99.90
25949;DHT22;13961;51.178;4.448;2022-09-27T16:25:17;13.60;99.90
25949;DHT22;13961;51.178;4.448;2022-09-27T16:27:43;13.30;99.90
25949;DHT22;13961;51.178;4.448;2022-09-27T16:30:09;13.30;99.90
25949;DHT22;13961;51.178;4.448;2022-09-27T16:32:44;13.10;99.90
25949;DHT22;13961;51.178;4.448;2022-09-27T16:35:13;13.10;99.90
25949;DHT22;13961;51.178;4.448;2022-09-27T16:37:39;13.10;99.90
25949;DHT22;13961;51.178;4.448;2022-09-27T16:40:08;13.10;99.90
25949;DHT22;13961;51.178;4.448;2022-09-27T16:42:34;13.30;99.90
25949;DHT22;13961;51.178;4.448;2022-09-27T16:45:01;13.30;99.90
25949;DHT22;13961;51.178;4.448;2022-09-27T16:47:27;13.30;99.90
25949;DHT22;13961;51.178;4.448;2022-09-27T16:49:54;13.20;99.90
25949;DHT22;13961;51.178;4.448;2022-09-27T16:52:38;13.20;99.90
25949;DHT22;13961;51.178;4.448;2022-09-27T16:55:04;13.20;99.90
25949;DHT22;13961;51.178;4.448;2022-09-27T16:57:34;13.30;99.90
25949;DHT22;13961;51.178;4.448;2022-09-27T17:00:00;13.60;99.90
25949;DHT22;13961;51.178;4.448;2022-09-27T17:02:26;13.30;99.90
25949;DHT22;13961;51.178;4.448;2022-09-27T17:04:53;13.10;99.90
25949;DHT22;13961;51.178;4.448;2022-09-27T17:07:19;13.00;99.90
25949;DHT22;13961;51.178;4.448;2022-09-27T17:09:45;13.00;99.90
25949;DHT22;13961;51.178;4.448;2022-09-27T17:12:12;13.00;99.90
25949;DHT22;13961;51.178;4.448;2022-09-27T17:14:38;13.20;99.90
25949;DHT22;13961;51.178;4.448;2022-09-27T17:17:04;13.10;99.90
25949;DHT22;13961;51.178;4.448;2022-09-27T17:19:30;13.20;99.90
25949;DHT22;13961;51.178;4.448;2022-09-27T17:21:57;13.30;99.90
25949;DHT22;13961;51.178;4.448;2022-09-27T17:24:23;13.20;99.90
25949;DHT22;13961;51.178;4.448;2022-09-27T17:26:48;13.20;99.90
25949;DHT22;13961;51.178;4.448;2022-09-27T17:29:15;13.10;99.90
25949;DHT22;13961;51.178;4.448;2022-09-27T17:31:41;13.00;99.90
25949;DHT22;13961;51.178;4.448;2022-09-27T17:34:09;13.00;99.90
25949;DHT22;13961;51.178;4.448;2022-09-27T17:36:38;12.90;99.90
25949;DHT22;13961;51.178;4.448;2022-09-27T17:39:08;12.90;99.90
25949;DHT22;13961;51.178;4.448;2022-09-27T17:41:35;12.90;99.90
25949;DHT22;13961;51.178;4.448;2022-09-27T17:44:03;12.90;99.90
25949;DHT22;13961;51.178;4.448;2022-09-27T17:46:35;13.10;99.90
25949;DHT22;13961;51.178;4.448;2022-09-27T17:49:02;12.80;99.90
25949;DHT22;13961;51.178;4.448;2022-09-27T17:51:49;12.80;99.90
25949;DHT22;13961;51.178;4.448;2022-09-27T17:54:16;12.70;99.90
25949;DHT22;13961;51.178;4.448;2022-09-27T17:56:44;12.60;99.90
25949;DHT22;13961;51.178;4.448;2022-09-27T17:59:12;12.60;99.90
25949;DHT22;13961;51.178;4.448;2022-09-27T18:01:41;12.50;99.90
25949;DHT22;13961;51.178;4.448;2022-09-27T18:04:09;12.50;99.90
25949;DHT22;13961;51.178;4.448;2022-09-27T18:06:43;12.60;99.90
25949;DHT22;13961;51.178;4.448;2022-09-27T18:09:10;12.20;99.90
25949;DHT22;13961;51.178;4.448;2022-09-27T18:11:38;12.30;99.90
25949;DHT22;13961;51.178;4.448;2022-09-27T18:14:04;12.00;99.90
25949;DHT22;13961;51.178;4.448;2022-09-27T18:16:33;12.00;99.90
25949;DHT22;13961;51.178;4.448;2022-09-27T18:19:02;12.00;99.90
25949;DHT22;13961;51.178;4.448;2022-09-27T18:21:29;11.90;99.90